Time;durP1;ratioP1;P1;durP2;ratioP2;P2;SDS_P1;SDS_P2;PMS_P1;PMS_P2;Temp;Humidity;BMP_temperature;BMP_pressure;BME280_temperature;BME280_humidity;BME280_pressure;Samples;Min_cycle;Max_cycle;Signal;HPM_P1;HPM_P2
2023/07/07 00:00:12;;;;;;;6.35;4.65;;;15.10;99.90;;;;;;5049864;28;20415;-71
2023/07/07 00:02:38;;;;;;;5.72;4.63;;;15.10;99.90;;;;;;5050784;28;20050;-69
2023/07/07 00:05:05;;;;;;;7.47;4.32;;;15.10;99.90;;;;;;5030021;28;20037;-72
2023/07/07 00:07:31;;;;;;;5.53;4.50;;;15.00;99.90;;;;;;5054547;28;20055;-71
2023/07/07 00:09:57;;;;;;;5.78;4.80;;;15.00;99.90;;;;;;5034233;28;20371;-70
2023/07/07 00:12:23;;;;;;;5.97;4.22;;;15.00;99.90;;;;;;5048877;28;20471;-70
2023/07/07 00:14:49;;;;;;;7.55;5.22;;;15.00;99.90;;;;;;5053657;28;20056;-70
2023/07/07 00:17:16;;;;;;;6.77;5.30;;;15.00;99.90;;;;;;5054477;28;20394;-70
2023/07/07 00:19:42;;;;;;;5.47;4.85;;;15.10;99.90;;;;;;5051721;28;20037;-70
2023/07/07 00:22:07;;;;;;;8.00;5.65;;;15.00;99.90;;;;;;5054166;28;20207;-70
2023/07/07 00:24:36;;;;;;;7.15;5.60;;;15.00;99.90;;;;;;5039832;28;20048;-69
2023/07/07 00:27:02;;;;;;;7.43;5.90;;;15.00;99.90;;;;;;5036935;28;20495;-69
2023/07/07 00:29:28;;;;;;;9.90;6.10;;;15.00;99.90;;;;;;5037979;28;20047;-70
2023/07/07 00:31:53;;;;;;;7.55;6.65;;;14.90;99.90;;;;;;5038130;28;20053;-70
2023/07/07 00:34:19;;;;;;;7.55;5.82;;;14.90;99.90;;;;;;5057779;28;20048;-70
2023/07/07 00:36:45;;;;;;;8.10;6.07;;;14.90;99.90;;;;;;5049796;28;20049;-70
2023/07/07 00:39:11;;;;;;;7.90;6.18;;;14.90;99.90;;;;;;5030928;28;20041;-70
2023/07/07 00:41:37;;;;;;;8.85;7.32;;;14.90;99.90;;;;;;5034439;28;20109;-72
2023/07/07 00:44:08;;;;;;;7.30;6.50;;;14.90;99.90;;;;;;5055779;28;20043;-70
2023/07/07 00:46:35;;;;;;;8.57;7.15;;;14.80;99.90;;;;;;5054544;28;20098;-71
2023/07/07 00:49:04;;;;;;;9.90;8.40;;;14.80;99.90;;;;;;5036844;28;21096;-69
2023/07/07 00:51:35;;;;;;;10.63;8.40;;;14.80;99.90;;;;;;5054621;28;20471;-70
2023/07/07 00:54:04;;;;;;;10.55;8.23;;;14.80;99.90;;;;;;5027027;28;20115;-73
2023/07/07 00:56:39;;;;;;;13.90;9.57;;;14.80;99.90;;;;;;5042776;28;20419;-70
2023/07/07 00:59:14;;;;;;;11.25;10.00;;;14.80;99.90;;;;;;5034722;28;20060;-70
2023/07/07 01:01:41;;;;;;;12.77;11.57;;;14.80;99.90;;;;;;5053815;28;20057;-72
2023/07/07 01:04:11;;;;;;;12.68;11.43;;;14.70;99.90;;;;;;5045048;28;21171;-71
2023/07/07 01:06:42;;;;;;;16.13;13.20;;;14.70;99.90;;;;;;5048487;28;20045;-70
2023/07/07 01:09:08;;;;;;;15.23;13.23;;;14.70;99.90;;;;;;5036648;28;20459;-71
2023/07/07 01:11:36;;;;;;;15.83;14.23;;;14.80;99.90;;;;;;5045205;28;20101;-69
2023/07/07 01:14:05;;;;;;;17.27;15.30;;;14.80;99.90;;;;;;5040587;28;20058;-71
2023/07/07 01:16:44;;;;;;;16.45;14.52;;;14.80;99.90;;;;;;5027387;28;20059;-70
2023/07/07 01:19:47;;;;;;;17.00;14.60;;;14.80;99.90;;;;;;5035691;28;20656;-69
2023/07/07 01:22:50;;;;;;;16.55;14.48;;;14.80;99.90;;;;;;5049875;28;20123;-70
2023/07/07 01:25:22;;;;;;;16.23;14.65;;;14.80;99.90;;;;;;5053672;28;20090;-70
2023/07/07 01:28:08;;;;;;;17.30;15.60;;;14.80;99.90;;;;;;5054002;28;20041;-70
2023/07/07 01:30:56;;;;;;;18.80;16.05;;;14.80;99.90;;;;;;5056729;28;20048;-70
2023/07/07 01:33:26;;;;;;;17.75;16.08;;;14.80;99.90;;;;;;5049878;28;20056;-69
2023/07/07 01:35:52;;;;;;;17.75;15.95;;;14.80;99.90;;;;;;5048828;28;20050;-70
2023/07/07 01:38:43;;;;;;;18.30;16.45;;;14.80;99.90;;;;;;5035782;28;20033;-70
2023/07/07 01:41:21;;;;;;;18.83;17.00;;;14.80;99.90;;;;;;5031606;28;20103;-70
2023/07/07 01:44:12;;;;;;;19.60;16.67;;;14.80;99.90;;;;;;5033861;28;20476;-69
2023/07/07 01:47:16;;;;;;;18.70;16.80;;;14.90;99.90;;;;;;5045771;28;20047;-70
2023/07/07 01:49:54;;;;;;;19.13;17.13;;;15.00;99.90;;;;;;5025583;28;20135;-70
2023/07/07 01:52:23;;;;;;;18.58;16.77;;;14.90;99.90;;;;;;5028537;28;20139;-72
2023/07/07 01:54:54;;;;;;;17.85;16.15;;;14.90;99.90;;;;;;5033471;28;20129;-71
2023/07/07 01:57:21;;;;;;;18.80;16.90;;;14.90;99.90;;;;;;5054932;28;20086;-70
2023/07/07 01:59:47;;;;;;;19.70;17.60;;;14.80;99.90;;;;;;5035046;28;20063;-69
2023/07/07 02:02:13;;;;;;;19.30;17.48;;;14.80;99.90;;;;;;5057742;28;20041;-71
2023/07/07 02:04:39;;;;;;;20.08;17.98;;;14.80;99.90;;;;;;5055923;28;20051;-70
2023/07/07 02:07:05;;;;;;;20.52;18.27;;;14.80;99.90;;;;;;5034027;28;20041;-69
2023/07/07 02:09:32;;;;;;;19.52;17.52;;;14.80;99.90;;;;;;5051779;28;20052;-70
2023/07/07 02:11:58;;;;;;;19.85;17.77;;;14.70;99.90;;;;;;5048675;28;20052;-70
2023/07/07 02:14:24;;;;;;;19.13;17.10;;;14.70;99.90;;;;;;5034974;28;20070;-69
2023/07/07 02:16:49;;;;;;;19.20;17.23;;;14.80;99.90;;;;;;5053995;28;20055;-70
2023/07/07 02:19:16;;;;;;;18.63;16.83;;;14.70;99.90;;;;;;5029687;28;20060;-70
2023/07/07 02:21:42;;;;;;;20.80;18.80;;;14.70;99.90;;;;;;5049101;28;20059;-70
2023/07/07 02:24:07;;;;;;;19.48;17.67;;;14.70;99.90;;;;;;5048496;28;20040;-70
2023/07/07 02:26:33;;;;;;;19.80;17.33;;;14.70;99.90;;;;;;5051218;28;20041;-70
2023/07/07 02:28:59;;;;;;;18.95;16.95;;;14.70;99.90;;;;;;5047681;28;20056;-69
2023/07/07 02:31:25;;;;;;;20.08;17.98;;;14.70;99.90;;;;;;5053736;28;20052;-70
2023/07/07 02:33:52;;;;;;;19.65;17.70;;;14.80;99.90;;;;;;5050358;28;20040;-69
2023/07/07 02:36:18;;;;;;;19.00;17.20;;;14.70;99.90;;;;;;5024719;28;20119;-69
2023/07/07 02:38:45;;;;;;;21.00;18.90;;;14.70;99.90;;;;;;5051329;28;20051;-69
2023/07/07 02:41:11;;;;;;;20.23;18.20;;;14.70;99.90;;;;;;5032686;28;20089;-71
2023/07/07 02:43:37;;;;;;;21.23;19.20;;;14.70;99.90;;;;;;5027182;28;20048;-70
2023/07/07 02:46:03;;;;;;;20.83;18.65;;;14.80;99.90;;;;;;5053556;28;20059;-69
2023/07/07 02:48:29;;;;;;;20.65;18.60;;;14.80;99.90;;;;;;5049100;28;20041;-70
2023/07/07 02:51:00;;;;;;;20.25;18.35;;;14.90;99.90;;;;;;5044315;28;20547;-70
2023/07/07 02:53:29;;;;;;;19.80;17.88;;;14.90;99.90;;;;;;5052477;28;20044;-69
2023/07/07 02:55:54;;;;;;;20.98;18.85;;;15.00;99.90;;;;;;5036131;28;20056;-70
2023/07/07 02:58:21;;;;;;;20.48;18.63;;;14.90;99.90;;;;;;5042686;28;20060;-68
2023/07/07 03:00:47;;;;;;;20.80;18.70;;;15.00;99.90;;;;;;5052924;28;20059;-70
2023/07/07 03:03:13;;;;;;;21.67;19.50;;;15.00;99.90;;;;;;5052219;28;20291;-70
2023/07/07 03:05:40;;;;;;;20.42;18.40;;;15.00;99.90;;;;;;5035544;28;20098;-71
2023/07/07 03:08:06;;;;;;;20.90;18.88;;;15.00;99.90;;;;;;5033815;28;20044;-70
2023/07/07 03:10:33;;;;;;;21.15;19.05;;;15.00;99.90;;;;;;5036121;28;20067;-70
2023/07/07 03:12:59;;;;;;;21.27;19.13;;;15.00;99.90;;;;;;5053458;28;20052;-69
2023/07/07 03:15:38;;;;;;;22.10;19.95;;;15.00;99.90;;;;;;5038673;28;20122;-72
2023/07/07 03:18:14;;;;;;;20.83;18.67;;;15.00;99.90;;;;;;5037151;28;20153;-71
2023/07/07 03:20:49;;;;;;;21.65;19.63;;;15.00;99.90;;;;;;5038874;28;20056;-70
2023/07/07 03:23:15;;;;;;;21.10;18.90;;;15.00;99.90;;;;;;5033150;28;20052;-72
2023/07/07 03:25:41;;;;;;;21.50;19.35;;;15.00;99.90;;;;;;5038129;28;20049;-70
2023/07/07 03:28:07;;;;;;;22.20;20.10;;;15.00;99.90;;;;;;5040281;28;20059;-71
2023/07/07 03:30:34;;;;;;;22.58;20.17;;;15.00;99.90;;;;;;5054252;28;20047;-70
2023/07/07 03:33:00;;;;;;;21.10;18.98;;;15.00;99.90;;;;;;5059368;28;20040;-70
2023/07/07 03:35:26;;;;;;;23.15;20.85;;;15.00;99.90;;;;;;5059898;28;20055;-70
2023/07/07 03:37:52;;;;;;;22.65;19.15;;;15.00;99.90;;;;;;5051372;28;20045;-69
2023/07/07 03:40:17;;;;;;;22.40;20.13;;;15.00;99.90;;;;;;5057903;28;20538;-70
2023/07/07 03:42:43;;;;;;;21.65;19.35;;;15.00;99.90;;;;;;5031977;28;20045;-69
2023/07/07 03:45:10;;;;;;;21.77;19.58;;;15.00;99.90;;;;;;5054734;28;20070;-70
2023/07/07 03:47:36;;;;;;;21.05;18.95;;;15.00;99.90;;;;;;5034688;28;20102;-69
2023/07/07 03:50:01;;;;;;;21.40;19.25;;;15.00;99.90;;;;;;5050167;28;20028;-70
2023/07/07 03:52:27;;;;;;;21.25;19.25;;;15.00;99.90;;;;;;5029244;28;20051;-69
2023/07/07 03:54:53;;;;;;;20.73;18.50;;;15.00;99.90;;;;;;5032758;28;20150;-70
2023/07/07 03:57:18;;;;;;;20.60;18.52;;;15.00;99.90;;;;;;5059359;28;20142;-69
2023/07/07 03:59:44;;;;;;;20.40;18.38;;;15.00;99.90;;;;;;5040228;28;20064;-69
2023/07/07 04:02:10;;;;;;;20.45;18.42;;;15.00;99.90;;;;;;5031660;28;21972;-70
2023/07/07 04:04:35;;;;;;;20.45;18.27;;;15.00;99.90;;;;;;5053140;28;20479;-69
2023/07/07 04:07:01;;;;;;;21.52;19.38;;;15.00;99.90;;;;;;5050792;28;20040;-69
2023/07/07 04:09:27;;;;;;;21.25;19.05;;;15.00;99.90;;;;;;5049274;28;20064;-70
2023/07/07 04:11:53;;;;;;;20.95;18.75;;;15.10;99.90;;;;;;5039346;28;21125;-69
2023/07/07 04:14:19;;;;;;;20.25;18.15;;;15.10;99.90;;;;;;5039559;28;20056;-71
2023/07/07 04:16:44;;;;;;;20.65;18.58;;;15.10;99.90;;;;;;5032894;28;20047;-70
2023/07/07 04:19:11;;;;;;;20.63;18.52;;;15.20;99.90;;;;;;5054350;28;20032;-70
2023/07/07 04:21:36;;;;;;;21.58;19.35;;;15.20;99.90;;;;;;5057275;28;20102;-70
2023/07/07 04:24:03;;;;;;;21.08;18.98;;;15.30;99.90;;;;;;5052449;28;20040;-69
2023/07/07 04:26:31;;;;;;;20.40;18.50;;;15.30;99.90;;;;;;5057329;28;20044;-70
2023/07/07 04:29:00;;;;;;;21.52;19.33;;;15.30;99.90;;;;;;5054209;28;20507;-69
2023/07/07 04:31:28;;;;;;;19.83;18.02;;;15.30;99.90;;;;;;5056758;28;20070;-71
2023/07/07 04:33:54;;;;;;;19.63;17.73;;;15.30;99.90;;;;;;5056433;28;20048;-70
2023/07/07 04:36:21;;;;;;;20.42;18.20;;;15.40;99.90;;;;;;5054585;28;20403;-70
2023/07/07 04:38:47;;;;;;;20.92;18.27;;;15.40;99.90;;;;;;5035164;28;20047;-71
2023/07/07 04:41:19;;;;;;;21.35;18.60;;;15.40;99.90;;;;;;5027150;28;20075;-71
2023/07/07 04:43:53;;;;;;;20.15;18.25;;;15.50;99.90;;;;;;5028728;28;20068;-69
2023/07/07 04:46:25;;;;;;;20.52;18.45;;;15.60;99.90;;;;;;5054816;28;20484;-69
2023/07/07 04:48:51;;;;;;;20.27;17.95;;;15.60;99.90;;;;;;5053271;28;20126;-70
2023/07/07 04:51:17;;;;;;;20.65;18.52;;;15.60;99.90;;;;;;5053153;28;20435;-71
2023/07/07 04:53:43;;;;;;;19.60;17.65;;;15.70;99.90;;;;;;5025894;28;20037;-71
2023/07/07 04:56:15;;;;;;;19.13;17.10;;;15.80;99.90;;;;;;5026960;28;20044;-71
2023/07/07 04:58:42;;;;;;;19.02;17.00;;;15.80;99.90;;;;;;5048649;28;20056;-71
2023/07/07 05:01:19;;;;;;;19.47;17.43;;;15.90;99.90;;;;;;5043900;28;20044;-72
2023/07/07 05:03:50;;;;;;;18.75;16.05;;;15.90;99.90;;;;;;5033249;28;20047;-70
2023/07/07 05:06:15;;;;;;;18.17;16.38;;;16.00;99.90;;;;;;5047481;28;20097;-70
2023/07/07 05:08:42;;;;;;;20.08;16.42;;;16.10;99.90;;;;;;5041928;28;20045;-70
2023/07/07 05:11:14;;;;;;;17.63;15.82;;;16.10;99.90;;;;;;5028508;28;20052;-70
2023/07/07 05:13:40;;;;;;;21.83;15.65;;;16.20;99.90;;;;;;5035581;28;20051;-70
2023/07/07 05:16:13;;;;;;;16.40;14.63;;;16.20;99.90;;;;;;5052636;28;20095;-70
2023/07/07 05:18:39;;;;;;;16.75;14.63;;;16.30;99.90;;;;;;5020865;28;20052;-70
2023/07/07 05:21:06;;;;;;;17.83;14.48;;;16.30;99.90;;;;;;5032152;28;20074;-70
2023/07/07 05:23:31;;;;;;;15.57;14.00;;;16.40;99.90;;;;;;5050515;28;20044;-71
2023/07/07 05:25:57;;;;;;;16.60;13.45;;;16.50;99.90;;;;;;5054158;28;20045;-71
2023/07/07 05:28:23;;;;;;;15.45;13.80;;;16.50;99.90;;;;;;5036278;28;20060;-70
2023/07/07 05:30:49;;;;;;;15.70;14.15;;;16.60;99.90;;;;;;5050362;28;20049;-71
2023/07/07 05:33:15;;;;;;;15.48;13.30;;;16.70;99.90;;;;;;5046580;28;20066;-70
2023/07/07 05:35:46;;;;;;;15.13;12.88;;;16.80;99.90;;;;;;5032500;28;20135;-71
2023/07/07 05:38:12;;;;;;;15.13;13.63;;;16.90;99.90;;;;;;5050185;28;20476;-72
2023/07/07 05:40:42;;;;;;;16.60;13.27;;;16.90;99.90;;;;;;5056920;28;20052;-70
2023/07/07 05:43:08;;;;;;;16.52;14.00;;;17.00;99.90;;;;;;5056172;28;20468;-71
2023/07/07 05:45:33;;;;;;;13.70;12.05;;;17.00;99.90;;;;;;5025187;28;20051;-70
2023/07/07 05:47:59;;;;;;;15.27;13.10;;;17.10;99.90;;;;;;5049680;28;20040;-70
2023/07/07 05:50:25;;;;;;;16.35;13.25;;;17.20;99.90;;;;;;5049395;28;20130;-70
2023/07/07 05:52:51;;;;;;;13.93;12.18;;;17.20;99.90;;;;;;5051244;28;20056;-71
2023/07/07 05:55:28;;;;;;;14.00;12.60;;;17.30;99.90;;;;;;5047673;28;20380;-69
2023/07/07 05:57:54;;;;;;;14.85;13.07;;;17.40;99.90;;;;;;5035723;28;20057;-69
2023/07/07 06:00:20;;;;;;;12.52;11.20;;;17.40;99.90;;;;;;5050519;28;20098;-69
2023/07/07 06:02:46;;;;;;;13.75;12.07;;;17.50;99.90;;;;;;5024871;28;20056;-68
2023/07/07 06:05:11;;;;;;;13.88;11.70;;;17.60;99.90;;;;;;5030358;28;20048;-70
2023/07/07 06:07:37;;;;;;;13.93;11.25;;;17.70;99.90;;;;;;5046952;28;20044;-69
2023/07/07 06:10:03;;;;;;;12.38;10.68;;;17.70;99.90;;;;;;5023669;28;20075;-69
2023/07/07 06:12:30;;;;;;;13.70;11.68;;;17.80;99.90;;;;;;5051407;28;20045;-68
2023/07/07 06:14:55;;;;;;;13.97;11.17;;;17.90;99.90;;;;;;5032048;28;20068;-68
2023/07/07 06:17:21;;;;;;;11.55;10.05;;;18.00;99.90;;;;;;5028436;28;20303;-68
2023/07/07 06:19:50;;;;;;;12.25;9.93;;;18.10;99.90;;;;;;5053791;28;20094;-68
2023/07/07 06:22:15;;;;;;;10.95;9.80;;;18.10;99.90;;;;;;5043916;28;20056;-68
2023/07/07 06:24:41;;;;;;;13.05;10.23;;;18.20;99.90;;;;;;5043973;28;20052;-69
2023/07/07 06:27:07;;;;;;;11.00;9.65;;;18.30;99.90;;;;;;5044023;28;20040;-69
2023/07/07 06:29:35;;;;;;;13.15;10.00;;;18.40;99.90;;;;;;5045001;28;20039;-69
2023/07/07 06:32:01;;;;;;;11.88;9.30;;;18.50;99.90;;;;;;5052153;28;20549;-69
2023/07/07 06:34:27;;;;;;;13.25;9.38;;;18.50;99.90;;;;;;5052522;28;20040;-69
2023/07/07 06:36:53;;;;;;;12.50;9.23;;;18.60;99.90;;;;;;5058020;28;20411;-69
2023/07/07 06:39:18;;;;;;;13.52;9.30;;;18.70;99.90;;;;;;5048724;28;20037;-69
2023/07/07 06:41:44;;;;;;;11.73;8.65;;;18.80;99.90;;;;;;5049719;28;20957;-69
2023/07/07 06:44:10;;;;;;;10.60;7.70;;;18.90;99.90;;;;;;5034663;28;20136;-69
2023/07/07 06:46:36;;;;;;;12.50;8.70;;;19.00;99.90;;;;;;5038552;28;20044;-70
2023/07/07 06:49:04;;;;;;;10.95;8.13;;;19.00;99.90;;;;;;5053159;28;20037;-68
2023/07/07 06:51:30;;;;;;;10.48;8.40;;;19.10;99.90;;;;;;5033035;28;21023;-70
2023/07/07 06:53:56;;;;;;;9.35;7.45;;;19.20;99.90;;;;;;5031652;28;20181;-69
2023/07/07 06:56:22;;;;;;;8.27;7.05;;;19.30;99.90;;;;;;5025443;28;20049;-72
2023/07/07 06:58:48;;;;;;;13.23;7.68;;;19.30;99.90;;;;;;5042605;28;20095;-69
2023/07/07 07:01:13;;;;;;;10.13;7.13;;;19.40;99.90;;;;;;5044142;28;20056;-69
2023/07/07 07:03:40;;;;;;;11.00;7.32;;;19.50;99.90;;;;;;5028614;28;20040;-68
2023/07/07 07:06:07;;;;;;;10.93;6.50;;;19.50;99.90;;;;;;5053527;28;20044;-69
2023/07/07 07:08:32;;;;;;;11.10;7.10;;;19.60;99.90;;;;;;5049375;28;20040;-68
2023/07/07 07:11:00;;;;;;;10.02;6.18;;;19.70;99.90;;;;;;5032931;28;20306;-67
2023/07/07 07:13:26;;;;;;;8.98;6.30;;;19.80;99.90;;;;;;5050294;28;20055;-68
2023/07/07 07:15:51;;;;;;;7.63;5.38;;;19.90;99.90;;;;;;5051146;28;20055;-69
2023/07/07 07:18:17;;;;;;;8.43;5.80;;;20.00;99.90;;;;;;5049435;28;20048;-70
2023/07/07 07:20:46;;;;;;;7.45;5.93;;;20.10;99.90;;;;;;5051308;28;20087;-69
2023/07/07 07:23:15;;;;;;;8.70;4.82;;;20.20;99.90;;;;;;5053939;28;20503;-70
2023/07/07 07:25:43;;;;;;;7.00;4.78;;;20.30;99.90;;;;;;5045640;28;20103;-70
2023/07/07 07:28:09;;;;;;;;;;;20.40;99.90;;;;;;5054652;28;20056;-71
2023/07/07 07:30:35;;;;;;;8.57;4.57;;;20.40;99.90;;;;;;5054006;28;19925;-71
2023/07/07 07:33:04;;;;;;;6.40;4.30;;;20.50;99.90;;;;;;5042374;28;20083;-71
2023/07/07 07:35:30;;;;;;;9.27;4.45;;;20.60;99.90;;;;;;5049465;28;20131;-70
2023/07/07 07:37:55;;;;;;;6.90;4.40;;;20.70;99.90;;;;;;5050312;28;20050;-69
2023/07/07 07:40:23;;;;;;;6.93;4.18;;;20.70;99.90;;;;;;5049297;28;20051;-69
2023/07/07 07:42:50;;;;;;;7.30;4.05;;;20.80;99.90;;;;;;5047076;28;20562;-69
2023/07/07 07:45:21;;;;;;;5.10;3.63;;;20.90;99.90;;;;;;5058750;28;20170;-70
2023/07/07 07:47:48;;;;;;;7.03;3.75;;;21.00;99.90;;;;;;5056533;28;20043;-68
2023/07/07 07:50:15;;;;;;;5.38;3.67;;;21.10;99.90;;;;;;5055418;28;20048;-70
2023/07/07 07:52:41;;;;;;;10.50;3.75;;;21.20;99.90;;;;;;5033041;28;20072;-69
2023/07/07 07:55:07;;;;;;;7.03;3.50;;;21.20;99.90;;;;;;5032273;28;20045;-72
2023/07/07 07:57:33;;;;;;;7.15;3.05;;;21.40;99.90;;;;;;5033916;28;20449;-71
2023/07/07 07:59:59;;;;;;;6.05;3.05;;;21.40;99.90;;;;;;5050102;28;20049;-71
2023/07/07 08:02:24;;;;;;;7.70;3.20;;;21.50;99.90;;;;;;5055008;28;20053;-70
2023/07/07 08:04:50;;;;;;;5.72;3.13;;;21.60;99.90;;;;;;5057220;28;20044;-70
2023/07/07 08:07:16;;;;;;;5.82;3.22;;;21.70;99.90;;;;;;5036344;28;20048;-70
2023/07/07 08:09:42;;;;;;;4.75;3.00;;;21.80;99.90;;;;;;5056844;28;20123;-72
2023/07/07 08:12:09;;;;;;;4.88;3.10;;;21.80;99.90;;;;;;5038847;28;20733;-71
2023/07/07 08:14:34;;;;;;;;;;;21.90;99.90;;;;;;5053793;28;20071;-70
2023/07/07 08:17:08;;;;;;;4.43;2.80;;;21.90;99.90;;;;;;5047077;28;20607;-72
2023/07/07 08:19:36;;;;;;;4.60;2.75;;;22.10;99.90;;;;;;5056297;28;20131;-70
2023/07/07 08:22:07;;;;;;;5.57;2.90;;;22.10;99.90;;;;;;5053744;28;20706;-70
2023/07/07 08:24:38;;;;;;;7.20;3.50;;;22.30;99.90;;;;;;5051426;28;20419;-70
2023/07/07 08:27:04;;;;;;;6.07;2.80;;;22.30;99.90;;;;;;5038387;28;20047;-70
2023/07/07 08:29:30;;;;;;;5.75;2.63;;;22.40;99.90;;;;;;5037355;28;20040;-70
2023/07/07 08:31:55;;;;;;;6.93;2.97;;;22.50;99.90;;;;;;5049019;28;20094;-70
2023/07/07 08:34:21;;;;;;;5.97;2.80;;;22.60;99.90;;;;;;5045850;28;20118;-70
2023/07/07 08:36:47;;;;;;;4.97;2.83;;;22.70;99.90;;;;;;5048699;28;20047;-70
2023/07/07 08:39:18;;;;;;;4.30;2.60;;;22.90;99.90;;;;;;5060625;28;20044;-69
2023/07/07 08:41:49;;;;;;;5.72;3.00;;;22.90;99.60;;;;;;5038923;28;20075;-71
2023/07/07 08:44:19;;;;;;;6.63;2.97;;;23.00;98.90;;;;;;5064639;28;20052;-70
2023/07/07 08:47:10;;;;;;;6.15;2.78;;;23.10;98.30;;;;;;5042134;28;20052;-68
2023/07/07 08:50:14;;;;;;;5.70;2.42;;;23.10;97.60;;;;;;5054848;28;20089;-66
2023/07/07 08:53:01;;;;;;;7.10;2.40;;;23.10;98.30;;;;;;5045205;28;20139;-66
2023/07/07 08:55:35;;;;;;;4.30;2.45;;;23.20;97.30;;;;;;5059493;28;20041;-67
2023/07/07 08:58:10;;;;;;;4.80;2.90;;;23.20;97.20;;;;;;5052160;28;20124;-68
2023/07/07 09:00:39;;;;;;;4.45;2.75;;;23.20;97.30;;;;;;5048279;28;20049;-71
2023/07/07 09:03:22;;;;;;;3.70;2.20;;;23.30;97.20;;;;;;5036805;28;20044;-72
2023/07/07 09:05:53;;;;;;;4.88;2.40;;;23.40;96.80;;;;;;5058364;28;20122;-72
2023/07/07 09:08:37;;;;;;;5.32;2.45;;;23.50;95.80;;;;;;5050638;28;20049;-72
2023/07/07 09:11:14;;;;;;;4.68;2.80;;;23.50;94.90;;;;;;5034850;28;20056;-71
2023/07/07 09:13:44;;;;;;;7.10;2.90;;;23.70;94.70;;;;;;5032945;28;20055;-70
2023/07/07 09:16:29;;;;;;;3.83;2.40;;;23.80;94.10;;;;;;5048237;28;20055;-72
2023/07/07 09:19:11;;;;;;;4.72;2.55;;;23.80;94.30;;;;;;5051933;28;20048;-70
2023/07/07 09:21:45;;;;;;;5.05;2.40;;;23.90;95.10;;;;;;5044892;28;20048;-73
2023/07/07 09:24:26;;;;;;;4.10;2.50;;;24.00;94.50;;;;;;5043339;28;20051;-71
2023/07/07 09:26:57;;;;;;;5.18;2.53;;;24.10;93.60;;;;;;5037804;28;20044;-70
2023/07/07 09:29:29;;;;;;;4.57;2.50;;;24.20;93.40;;;;;;5024024;28;20495;-69
2023/07/07 09:31:55;;;;;;;4.82;2.20;;;24.20;92.60;;;;;;5046168;28;20045;-71
2023/07/07 09:34:23;;;;;;;3.90;2.70;;;24.30;92.40;;;;;;5055300;28;20395;-69
2023/07/07 09:37:03;;;;;;;4.07;2.60;;;24.30;93.10;;;;;;5058224;28;20048;-68
2023/07/07 09:39:38;;;;;;;4.82;2.78;;;24.40;92.40;;;;;;5026753;28;20040;-69
2023/07/07 09:42:07;;;;;;;4.80;2.45;;;24.50;91.30;;;;;;5057797;28;20566;-70
2023/07/07 09:44:48;;;;;;;4.20;2.60;;;24.50;90.80;;;;;;5048925;28;20044;-69
2023/07/07 09:47:34;;;;;;;5.00;2.42;;;24.60;90.40;;;;;;5023985;28;20052;-71
2023/07/07 09:50:36;;;;;;;4.25;2.53;;;24.60;91.70;;;;;;5047437;28;20063;-70
2023/07/07 09:53:12;;;;;;;4.32;2.42;;;24.60;91.10;;;;;;4990066;28;20046;-71
2023/07/07 09:55:39;;;;;;;5.22;2.80;;;24.80;91.10;;;;;;5043069;28;20075;-71
2023/07/07 09:58:20;;;;;;;5.07;2.58;;;24.80;90.30;;;;;;5033985;28;20500;-71
2023/07/07 10:00:51;;;;;;;5.55;2.63;;;24.80;90.00;;;;;;5052680;28;20577;-70
2023/07/07 10:03:26;;;;;;;3.20;2.42;;;24.90;90.30;;;;;;5052459;28;20122;-71
2023/07/07 10:05:55;;;;;;;5.40;2.55;;;24.90;88.70;;;;;;5048687;28;20407;-71
2023/07/07 10:08:20;;;;;;;4.05;2.60;;;25.10;89.50;;;;;;5037471;28;20530;-70
2023/07/07 10:11:10;;;;;;;6.30;3.00;;;25.10;88.00;;;;;;5027246;28;20107;-72
2023/07/07 10:13:36;;;;;;;5.80;2.70;;;25.20;86.20;;;;;;5053376;28;20535;-71
2023/07/07 10:16:07;;;;;;;4.35;2.55;;;25.20;85.30;;;;;;5039000;28;20102;-71
2023/07/07 10:18:33;;;;;;;6.07;3.00;;;25.30;84.70;;;;;;5058142;28;20460;-72
2023/07/07 10:21:02;;;;;;;5.93;2.57;;;25.40;83.50;;;;;;5030215;28;20094;-72
2023/07/07 10:23:29;;;;;;;4.72;2.50;;;25.50;83.10;;;;;;5034351;28;20048;-73
2023/07/07 10:25:54;;;;;;;6.03;2.80;;;25.60;80.70;;;;;;5052664;28;20068;-71
2023/07/07 10:28:21;;;;;;;4.03;2.50;;;25.60;82.60;;;;;;5054712;28;20123;-72
2023/07/07 10:30:48;;;;;;;7.75;2.70;;;25.60;81.60;;;;;;5038571;28;20044;-70
2023/07/07 10:33:18;;;;;;;4.18;2.45;;;25.70;80.70;;;;;;5056848;28;20045;-73
2023/07/07 10:35:44;;;;;;;5.70;2.83;;;25.70;80.60;;;;;;5037619;28;20040;-72
2023/07/07 10:38:11;;;;;;;3.83;2.35;;;25.80;79.40;;;;;;5045154;28;20047;-71
2023/07/07 10:40:38;;;;;;;5.68;2.95;;;25.90;79.30;;;;;;5051814;28;20045;-71
2023/07/07 10:43:05;;;;;;;;;;;26.00;78.10;;;;;;5055335;28;20129;-71
2023/07/07 10:45:31;;;;;;;3.92;2.50;;;26.00;78.80;;;;;;5032855;28;19928;-70
2023/07/07 10:47:57;;;;;;;3.30;2.20;;;26.00;75.50;;;;;;5048017;28;20044;-72
2023/07/07 10:50:25;;;;;;;3.63;2.40;;;26.00;75.80;;;;;;5050571;28;20060;-71
2023/07/07 10:53:10;;;;;;;5.68;2.58;;;26.10;74.90;;;;;;5054648;28;20634;-72
2023/07/07 10:55:57;;;;;;;4.78;2.60;;;26.10;73.60;;;;;;5048708;28;20094;-71
2023/07/07 10:58:41;;;;;;;5.63;2.45;;;26.20;72.50;;;;;;5029872;28;20064;-72
2023/07/07 11:01:25;;;;;;;4.35;2.70;;;26.30;73.20;;;;;;5046922;28;20056;-73
2023/07/07 11:04:24;;;;;;;4.43;2.75;;;26.40;71.00;;;;;;5029217;28;20097;-71
2023/07/07 11:07:02;;;;;;;3.97;2.42;;;26.40;69.30;;;;;;5029906;28;22047;-73
2023/07/07 11:09:46;;;;;;;5.03;2.85;;;26.40;66.20;;;;;;5051275;28;20396;-75
2023/07/07 11:12:46;;;;;;;4.47;2.50;;;26.40;67.80;;;;;;5054715;28;20525;-72
2023/07/07 11:15:27;;;;;;;4.95;2.75;;;26.50;69.60;;;;;;5032229;28;20052;-73
2023/07/07 11:18:37;;;;;;;3.67;2.53;;;26.60;68.30;;;;;;5047944;28;20046;-73
2023/07/07 11:21:25;;;;;;;4.03;2.80;;;26.70;69.60;;;;;;5010942;28;20065;-73
2023/07/07 11:24:10;;;;;;;5.13;2.63;;;26.70;65.10;;;;;;5051258;28;20056;-73
2023/07/07 11:26:51;;;;;;;4.20;2.50;;;26.60;65.20;;;;;;5030687;28;20048;-72
2023/07/07 11:29:34;;;;;;;3.85;2.50;;;26.70;66.00;;;;;;5052268;28;20040;-70
2023/07/07 11:32:22;;;;;;;3.72;2.58;;;26.70;66.70;;;;;;5052588;28;20075;-73
2023/07/07 11:35:06;;;;;;;4.68;2.50;;;26.90;66.80;;;;;;5033304;28;20052;-71
2023/07/07 11:37:49;;;;;;;3.40;2.63;;;26.90;66.20;;;;;;5043837;28;20107;-73
2023/07/07 11:40:48;;;;;;;5.32;2.58;;;27.00;64.00;;;;;;5038535;28;20061;-73
2023/07/07 11:43:26;;;;;;;4.00;2.80;;;27.10;63.40;;;;;;5034113;28;20399;-72
2023/07/07 11:46:14;;;;;;;7.60;4.50;;;27.20;64.00;;;;;;5021164;28;20495;-72
2023/07/07 11:48:42;;;;;;;3.95;2.55;;;27.20;64.70;;;;;;5055970;28;20102;-72
2023/07/07 11:51:22;;;;;;;3.90;2.60;;;27.30;63.80;;;;;;5054307;28;20055;-72
2023/07/07 11:54:26;;;;;;;4.82;2.60;;;27.40;62.70;;;;;;5030793;28;20051;-73
2023/07/07 11:56:52;;;;;;;3.65;2.25;;;27.40;63.90;;;;;;5029858;28;20037;-73
2023/07/07 12:00:00;;;;;;;3.13;2.27;;;27.50;63.30;;;;;;5033461;28;20057;-73
2023/07/07 12:02:41;;;;;;;4.90;2.70;;;27.60;61.70;;;;;;5048906;28;20052;-74
2023/07/07 12:05:13;;;;;;;4.65;2.63;;;27.60;60.30;;;;;;5054322;28;20060;-75
2023/07/07 12:07:51;;;;;;;4.03;2.38;;;27.60;61.90;;;;;;5052002;28;20052;-72
2023/07/07 12:10:28;;;;;;;3.83;2.60;;;27.70;61.70;;;;;;5032784;28;20151;-74
2023/07/07 12:13:02;;;;;;;3.58;2.60;;;27.70;59.10;;;;;;5029332;28;20059;-74
2023/07/07 12:15:31;;;;;;;4.65;2.50;;;27.70;58.90;;;;;;5041506;28;20037;-73
2023/07/07 12:18:11;;;;;;;3.97;2.80;;;27.70;58.00;;;;;;5048432;28;20165;-74
2023/07/07 12:20:55;;;;;;;4.53;2.60;;;27.80;58.20;;;;;;5034082;28;20063;-74
2023/07/07 12:23:29;;;;;;;4.15;2.45;;;27.80;58.40;;;;;;5045316;28;20041;-75
2023/07/07 12:26:22;;;;;;;4.78;2.50;;;27.90;59.30;;;;;;5032428;28;20692;-75
2023/07/07 12:28:53;;;;;;;3.15;2.28;;;28.00;59.00;;;;;;5048470;28;20052;-75
2023/07/07 12:31:20;;;;;;;5.72;2.70;;;28.00;57.90;;;;;;5047578;28;20052;-73
2023/07/07 12:33:51;;;;;;;4.50;2.55;;;28.00;56.50;;;;;;5054647;28;20111;-73
2023/07/07 12:36:18;;;;;;;3.97;2.50;;;28.00;57.20;;;;;;5030687;28;20036;-72
2023/07/07 12:38:50;;;;;;;3.38;2.45;;;28.00;56.50;;;;;;5029759;28;20040;-76
2023/07/07 12:41:21;;;;;;;5.53;2.58;;;28.10;58.20;;;;;;5041318;28;20083;-73
2023/07/07 12:44:05;;;;;;;2.67;2.00;;;28.10;58.50;;;;;;5054676;28;20044;-73
2023/07/07 12:46:37;;;;;;;4.43;2.75;;;28.30;56.80;;;;;;5052984;28;20036;-74
2023/07/07 12:49:16;;;;;;;4.55;2.47;;;28.40;58.40;;;;;;5053734;28;20052;-73
2023/07/07 12:51:41;;;;;;;5.00;2.65;;;28.40;58.20;;;;;;5032131;28;20468;-72
2023/07/07 12:54:27;;;;;;;3.60;2.87;;;28.50;57.40;;;;;;5051368;28;21814;-74
2023/07/07 12:57:17;;;;;;;4.72;2.60;;;28.50;57.20;;;;;;5046949;28;20582;-73